Time;durP1;ratioP1;P1;durP2;ratioP2;P2;SDS_P1;SDS_P2;PMS_P1;PMS_P2;Temp;Humidity;BMP_temperature;BMP_pressure;BME280_temperature;BME280_humidity;BME280_pressure;Samples;Min_cycle;Max_cycle;Signal;HPM_P1;HPM_P2
2023/09/16 00:00:08;;;;;;;2.80;2.60;;;;;;;;;;6183973;23;20206;-94
2023/09/16 00:02:37;;;;;;;2.70;2.50;;;;;;;;;;6184146;23;21022;-93
2023/09/16 00:05:06;;;;;;;2.50;2.30;;;;;;;;;;6184060;23;20170;-93
2023/09/16 00:07:33;;;;;;;3.00;2.72;;;;;;;;;;6183840;23;20162;-93
2023/09/16 00:10:01;;;;;;;2.30;2.17;;;;;;;;;;6184101;23;20162;-93
2023/09/16 00:12:29;;;;;;;5.53;2.97;;;;;;;;;;6183912;23;20158;-93
2023/09/16 00:14:56;;;;;;;2.20;2.00;;;;;;;;;;6183825;23;20159;-93
2023/09/16 00:17:24;;;;;;;3.58;2.60;;;;;;;;;;6183638;23;20159;-92
2023/09/16 00:19:53;;;;;;;3.17;2.88;;;;;;;;;;6183544;23;20183;-92
2023/09/16 00:22:21;;;;;;;2.28;2.08;;;;;;;;;;6183556;23;20164;-93
2023/09/16 00:24:49;;;;;;;2.65;2.45;;;;;;;;;;6183904;23;20151;-92
2023/09/16 00:27:17;;;;;;;2.63;2.42;;;;;;;;;;6183593;23;20170;-93
2023/09/16 00:29:45;;;;;;;3.05;2.40;;;;;;;;;;6183469;23;20170;-93
2023/09/16 00:32:12;;;;;;;2.90;2.20;;;;;;;;;;6183612;23;20159;-93
2023/09/16 00:34:40;;;;;;;2.30;2.10;;;;;;;;;;6183709;23;20155;-94
2023/09/16 00:37:09;;;;;;;2.40;2.20;;;;;;;;;;6183592;23;20155;-92
2023/09/16 00:39:38;;;;;;;2.35;2.17;;;;;;;;;;6183192;23;20199;-93
2023/09/16 00:42:06;;;;;;;3.05;2.65;;;;;;;;;;6183515;23;20186;-93
2023/09/16 00:44:34;;;;;;;2.30;2.10;;;;;;;;;;6183633;23;20152;-92
2023/09/16 00:47:01;;;;;;;2.40;2.20;;;;;;;;;;6183528;23;20163;-93
2023/09/16 00:49:30;;;;;;;2.50;2.28;;;;;;;;;;6183033;23;20171;-93
2023/09/16 00:51:58;;;;;;;2.50;2.30;;;;;;;;;;6183530;23;20152;-92
2023/09/16 00:54:28;;;;;;;3.08;2.00;;;;;;;;;;6183474;23;20171;-92
2023/09/16 00:56:57;;;;;;;2.15;2.05;;;;;;;;;;6183314;23;20215;-93
2023/09/16 00:59:26;;;;;;;2.53;2.33;;;;;;;;;;6182786;23;20262;-94
2023/09/16 01:01:55;;;;;;;1.90;1.80;;;;;;;;;;6183325;23;20152;-92
2023/09/16 01:04:23;;;;;;;1.85;1.75;;;;;;;;;;6183391;23;20151;-93
2023/09/16 01:06:51;;;;;;;2.45;2.25;;;;;;;;;;6183340;23;20148;-92
2023/09/16 01:09:20;;;;;;;2.20;2.05;;;;;;;;;;6182941;23;20185;-93
2023/09/16 01:11:50;;;;;;;2.42;2.22;;;;;;;;;;6183546;23;20152;-93
2023/09/16 01:14:17;;;;;;;3.75;2.17;;;;;;;;;;6183268;23;20151;-93
2023/09/16 01:16:50;;;;;;;2.50;2.30;;;;;;;;;;6183144;23;20144;-94
2023/09/16 01:19:34;;;;;;;2.70;2.50;;;;;;;;;;6182776;23;20175;-94
2023/09/16 01:22:03;;;;;;;2.40;2.20;;;;;;;;;;6183371;23;20163;-95
2023/09/16 01:24:31;;;;;;;2.33;2.22;;;;;;;;;;6183119;23;20163;-94
2023/09/16 01:26:59;;;;;;;2.60;2.40;;;;;;;;;;6182772;23;20156;-92
2023/09/16 01:29:28;;;;;;;2.70;2.50;;;;;;;;;;6182761;23;20198;-93
2023/09/16 01:31:57;;;;;;;2.47;2.28;;;;;;;;;;6183189;23;20155;-93
2023/09/16 01:34:32;;;;;;;3.03;2.15;;;;;;;;;;6183120;23;20154;-93
2023/09/16 01:37:00;;;;;;;2.65;2.45;;;;;;;;;;6183148;23;20165;-92
2023/09/16 01:39:30;;;;;;;1.90;1.80;;;;;;;;;;6182548;23;20175;-93
2023/09/16 01:42:00;;;;;;;2.47;2.22;;;;;;;;;;6183205;23;20163;-92
2023/09/16 01:44:28;;;;;;;2.70;2.50;;;;;;;;;;6183113;23;20171;-93
2023/09/16 01:46:56;;;;;;;2.58;2.15;;;;;;;;;;6183038;23;20187;-91
2023/09/16 01:49:24;;;;;;;2.28;2.17;;;;;;;;;;6182761;23;20174;-93
2023/09/16 01:51:51;;;;;;;2.53;2.35;;;;;;;;;;6182979;23;20164;-92
2023/09/16 01:54:19;;;;;;;2.28;1.70;;;;;;;;;;6183000;23;20171;-93
2023/09/16 01:56:48;;;;;;;1.83;1.73;;;;;;;;;;6182969;23;20151;-93
2023/09/16 01:59:17;;;;;;;2.10;1.90;;;;;;;;;;6182498;23;20167;-93
2023/09/16 02:01:46;;;;;;;1.75;1.65;;;;;;;;;;6182863;23;20178;-92
2023/09/16 02:04:14;;;;;;;2.00;1.90;;;;;;;;;;6182834;23;20158;-93
2023/09/16 02:06:44;;;;;;;1.70;1.60;;;;;;;;;;6182986;23;20151;-94
2023/09/16 02:09:11;;;;;;;2.10;1.90;;;;;;;;;;6182564;23;20222;-93
2023/09/16 02:11:39;;;;;;;1.85;1.75;;;;;;;;;;6182969;23;20167;-92
2023/09/16 02:14:08;;;;;;;1.90;1.60;;;;;;;;;;6182877;23;20147;-93
2023/09/16 02:16:38;;;;;;;2.65;2.08;;;;;;;;;;6182881;23;20179;-93
2023/09/16 02:19:05;;;;;;;1.92;1.80;;;;;;;;;;6182496;23;20234;-92
2023/09/16 02:21:33;;;;;;;2.58;2.38;;;;;;;;;;6182635;23;20238;-93
2023/09/16 02:24:01;;;;;;;1.92;1.80;;;;;;;;;;6182783;23;20151;-93
2023/09/16 02:26:28;;;;;;;2.05;1.88;;;;;;;;;;6182731;23;20163;-94
2023/09/16 02:28:56;;;;;;;1.83;1.73;;;;;;;;;;6182490;23;20187;-93
2023/09/16 02:31:26;;;;;;;2.38;2.17;;;;;;;;;;6182854;23;20144;-93
2023/09/16 02:33:57;;;;;;;2.10;1.90;;;;;;;;;;6182835;23;20163;-92
2023/09/16 02:36:24;;;;;;;2.10;1.90;;;;;;;;;;6182792;23;20155;-92
2023/09/16 02:38:53;;;;;;;2.03;1.90;;;;;;;;;;6183332;23;20183;-93
2023/09/16 02:41:20;;;;;;;1.90;1.80;;;;;;;;;;6184597;23;20214;-94
2023/09/16 02:43:48;;;;;;;2.15;2.00;;;;;;;;;;6184754;23;20156;-92
2023/09/16 02:46:15;;;;;;;2.70;2.50;;;;;;;;;;6184780;23;20159;-93
2023/09/16 02:48:43;;;;;;;2.50;2.03;;;;;;;;;;6184322;23;20175;-93
2023/09/16 02:51:12;;;;;;;1.90;1.80;;;;;;;;;;6184553;23;20151;-93
2023/09/16 02:53:40;;;;;;;2.00;1.80;;;;;;;;;;6184519;23;20159;-92
2023/09/16 02:56:09;;;;;;;2.47;2.10;;;;;;;;;;6184584;23;20151;-93
2023/09/16 02:58:37;;;;;;;1.75;1.65;;;;;;;;;;6184060;23;20167;-93
2023/09/16 03:01:10;;;;;;;3.00;1.90;;;;;;;;;;6184467;23;20184;-93
2023/09/16 03:03:37;;;;;;;2.33;2.13;;;;;;;;;;6184513;23;20156;-93
2023/09/16 03:06:05;;;;;;;2.95;1.73;;;;;;;;;;6177681;23;20163;-94
2023/09/16 03:08:34;;;;;;;1.92;1.83;;;;;;;;;;6178073;23;20174;-94
2023/09/16 03:11:03;;;;;;;2.03;1.92;;;;;;;;;;6178880;23;20163;-91
2023/09/16 03:13:30;;;;;;;1.92;1.83;;;;;;;;;;6178945;23;20178;-93
2023/09/16 03:16:16;;;;;;;2.33;2.20;;;;;;;;;;6179158;23;20152;-94
2023/09/16 03:18:46;;;;;;;1.90;1.80;;;;;;;;;;6177950;23;20210;-92
2023/09/16 03:21:14;;;;;;;2.67;2.47;;;;;;;;;;6178194;23;20231;-91
2023/09/16 03:23:44;;;;;;;2.55;2.35;;;;;;;;;;6178426;23;20175;-93
2023/09/16 03:26:13;;;;;;;2.83;2.70;;;;;;;;;;6178587;23;20163;-92
2023/09/16 03:28:44;;;;;;;2.85;2.08;;;;;;;;;;6178170;23;20187;-93
2023/09/16 03:31:11;;;;;;;2.90;2.70;;;;;;;;;;6178910;23;20155;-93
2023/09/16 03:33:39;;;;;;;2.00;1.90;;;;;;;;;;6179386;23;20369;-92
2023/09/16 03:36:08;;;;;;;2.58;2.38;;;;;;;;;;6178883;23;20151;-92
2023/09/16 03:38:44;;;;;;;2.00;1.90;;;;;;;;;;6178458;23;20175;-92
2023/09/16 03:41:15;;;;;;;2.22;2.08;;;;;;;;;;6178746;23;20175;-92
2023/09/16 03:43:43;;;;;;;3.15;2.78;;;;;;;;;;6178856;23;20162;-93
2023/09/16 03:46:10;;;;;;;2.40;2.20;;;;;;;;;;6178842;23;20158;-93
2023/09/16 03:48:38;;;;;;;2.30;2.10;;;;;;;;;;6178393;23;20171;-93
2023/09/16 03:51:07;;;;;;;2.20;2.10;;;;;;;;;;6178106;23;20175;-93
2023/09/16 03:53:35;;;;;;;2.47;2.28;;;;;;;;;;6178598;23;20155;-92
2023/09/16 03:56:06;;;;;;;2.35;2.22;;;;;;;;;;6178724;23;20174;-93
2023/09/16 03:58:36;;;;;;;3.13;2.83;;;;;;;;;;6177980;23;20252;-93
2023/09/16 04:01:04;;;;;;;2.53;2.33;;;;;;;;;;6178490;23;20167;-93
2023/09/16 04:03:31;;;;;;;2.05;1.92;;;;;;;;;;6178896;23;20250;-94
2023/09/16 04:06:16;;;;;;;2.20;2.10;;;;;;;;;;5181790;27;20597;-92
2023/09/16 04:08:44;;;;;;;3.05;2.10;;;;;;;;;;5148008;27;20433;-91
2023/09/16 04:11:12;;;;;;;5.93;2.67;;;;;;;;;;5148319;28;20179;-91
2023/09/16 04:13:39;;;;;;;2.67;2.45;;;;;;;;;;5148354;28;20179;-92
2023/09/16 04:16:07;;;;;;;2.25;2.08;;;;;;;;;;5148256;28;20198;-91
2023/09/16 04:18:35;;;;;;;2.20;2.00;;;;;;;;;;5147508;28;20190;-91
2023/09/16 04:21:02;;;;;;;2.38;2.17;;;;;;;;;;5147549;28;20198;-92
2023/09/16 04:23:31;;;;;;;2.00;1.90;;;;;;;;;;5148440;27;20254;-91
2023/09/16 04:26:01;;;;;;;2.40;2.20;;;;;;;;;;5147951;27;20218;-91
2023/09/16 04:28:29;;;;;;;2.28;2.17;;;;;;;;;;5147471;28;20190;-92
2023/09/16 04:30:57;;;;;;;2.00;1.90;;;;;;;;;;5147933;27;20187;-91
2023/09/16 04:33:24;;;;;;;2.20;1.85;;;;;;;;;;5148629;28;20183;-91
2023/09/16 04:35:53;;;;;;;1.77;1.67;;;;;;;;;;5147323;28;20187;-92
2023/09/16 04:38:22;;;;;;;2.30;2.10;;;;;;;;;;5147280;27;20203;-91
2023/09/16 04:40:51;;;;;;;1.77;1.67;;;;;;;;;;5148006;28;20191;-91
2023/09/16 04:43:20;;;;;;;2.28;1.48;;;;;;;;;;5147795;28;20182;-91
2023/09/16 04:45:49;;;;;;;2.35;1.50;;;;;;;;;;5147242;28;20215;-95
2023/09/16 04:48:17;;;;;;;1.60;1.50;;;;;;;;;;5147386;28;20217;-93
2023/09/16 04:50:46;;;;;;;1.92;1.80;;;;;;;;;;5147807;27;20215;-92
2023/09/16 04:53:14;;;;;;;1.77;1.67;;;;;;;;;;5147087;27;20183;-92
2023/09/16 04:55:42;;;;;;;1.70;1.60;;;;;;;;;;5147765;28;20183;-93
2023/09/16 04:58:11;;;;;;;1.77;1.67;;;;;;;;;;5146998;27;20201;-92
2023/09/16 05:00:39;;;;;;;2.38;2.20;;;;;;;;;;5147136;28;20199;-93
2023/09/16 05:03:06;;;;;;;1.80;1.70;;;;;;;;;;5147038;28;20190;-93
2023/09/16 05:05:35;;;;;;;2.95;2.08;;;;;;;;;;5150745;28;20192;-92
2023/09/16 05:08:03;;;;;;;2.08;1.98;;;;;;;;;;5156100;27;20194;-94
2023/09/16 05:10:31;;;;;;;1.92;1.80;;;;;;;;;;5156512;27;20183;-91
2023/09/16 05:12:58;;;;;;;3.90;1.70;;;;;;;;;;5156619;27;20171;-92
2023/09/16 05:15:28;;;;;;;1.90;1.80;;;;;;;;;;5155488;27;20175;-92
2023/09/16 05:17:55;;;;;;;1.90;1.80;;;;;;;;;;5142299;28;20172;-92
2023/09/16 05:20:23;;;;;;;1.95;1.85;;;;;;;;;;5141810;28;20164;-93
2023/09/16 05:22:51;;;;;;;2.33;2.13;;;;;;;;;;5141888;28;20179;-92
2023/09/16 05:25:19;;;;;;;1.98;1.88;;;;;;;;;;5142322;28;20192;-91
2023/09/16 05:27:47;;;;;;;2.03;1.92;;;;;;;;;;5142110;27;20188;-92
2023/09/16 05:30:16;;;;;;;2.10;1.95;;;;;;;;;;5142297;28;20167;-92
2023/09/16 05:32:45;;;;;;;2.45;1.88;;;;;;;;;;5142431;28;20231;-94
2023/09/16 05:35:12;;;;;;;1.85;1.65;;;;;;;;;;5142442;28;20168;-93
2023/09/16 05:37:40;;;;;;;1.50;1.40;;;;;;;;;;5142111;28;20172;-92
2023/09/16 05:40:09;;;;;;;1.52;1.42;;;;;;;;;;5142240;28;20180;-93
2023/09/16 05:42:37;;;;;;;1.50;1.40;;;;;;;;;;5142325;28;20164;-92
2023/09/16 05:45:05;;;;;;;1.50;1.40;;;;;;;;;;5142131;28;20179;-92
2023/09/16 05:47:33;;;;;;;1.52;1.42;;;;;;;;;;5142078;28;20203;-93
2023/09/16 05:50:02;;;;;;;1.42;1.33;;;;;;;;;;5142050;28;20164;-94
2023/09/16 05:52:30;;;;;;;1.52;1.42;;;;;;;;;;5141936;28;20183;-93
2023/09/16 05:54:59;;;;;;;1.10;1.10;;;;;;;;;;5141864;28;20206;-95
2023/09/16 05:57:27;;;;;;;1.42;1.33;;;;;;;;;;5142082;27;20164;-91
2023/09/16 05:59:54;;;;;;;1.08;1.08;;;;;;;;;;5141887;28;20168;-92
2023/09/16 06:02:22;;;;;;;1.45;1.38;;;;;;;;;;5141909;28;20172;-92
2023/09/16 06:04:50;;;;;;;1.35;1.25;;;;;;;;;;5141779;27;20176;-92
2023/09/16 06:07:19;;;;;;;1.70;1.60;;;;;;;;;;5141785;27;20184;-92
2023/09/16 06:09:47;;;;;;;1.73;1.63;;;;;;;;;;5141527;27;20164;-92
2023/09/16 06:12:14;;;;;;;1.58;1.45;;;;;;;;;;5141629;27;20168;-93
2023/09/16 06:14:42;;;;;;;1.50;1.40;;;;;;;;;;5141771;28;20183;-92
2023/09/16 06:17:09;;;;;;;1.40;1.30;;;;;;;;;;5141646;27;20171;-92
2023/09/16 06:19:39;;;;;;;1.42;1.33;;;;;;;;;;5141347;27;20163;-92
2023/09/16 06:22:09;;;;;;;1.30;1.30;;;;;;;;;;5141122;27;20176;-94
2023/09/16 06:24:38;;;;;;;1.42;1.33;;;;;;;;;;5141280;28;20214;-93
2023/09/16 06:27:06;;;;;;;1.88;1.70;;;;;;;;;;5141153;28;20184;-93
2023/09/16 06:29:33;;;;;;;2.13;2.00;;;;;;;;;;5140481;28;20164;-93
2023/09/16 06:32:01;;;;;;;1.70;1.60;;;;;;;;;;5141374;28;20168;-92
2023/09/16 06:34:29;;;;;;;1.70;1.60;;;;;;;;;;5141351;28;20176;-93
2023/09/16 06:36:58;;;;;;;2.00;1.90;;;;;;;;;;5141141;28;20172;-92
2023/09/16 06:39:26;;;;;;;2.15;1.70;;;;;;;;;;5140794;28;20168;-92
2023/09/16 06:41:55;;;;;;;2.42;2.22;;;;;;;;;;5141159;28;20168;-93
2023/09/16 06:44:22;;;;;;;1.70;1.60;;;;;;;;;;5141173;28;20168;-92
2023/09/16 06:46:50;;;;;;;1.48;1.38;;;;;;;;;;5140941;28;20198;-92
2023/09/16 06:49:18;;;;;;;1.75;1.65;;;;;;;;;;5140746;28;20160;-92
2023/09/16 06:51:45;;;;;;;1.58;1.48;;;;;;;;;;5140856;28;20235;-94
2023/09/16 06:54:12;;;;;;;1.70;1.55;;;;;;;;;;5140696;28;20179;-91
2023/09/16 06:56:40;;;;;;;3.30;2.45;;;;;;;;;;5140888;28;20175;-92
2023/09/16 06:59:09;;;;;;;1.60;1.50;;;;;;;;;;5140527;28;20175;-94
2023/09/16 07:01:36;;;;;;;2.17;1.98;;;;;;;;;;5140843;28;20179;-92
2023/09/16 07:04:09;;;;;;;1.98;1.88;;;;;;;;;;5140547;28;20164;-92
2023/09/16 07:06:37;;;;;;;2.15;2.05;;;;;;;;;;5140664;28;20187;-92
2023/09/16 07:09:05;;;;;;;1.83;1.73;;;;;;;;;;5140328;28;20168;-93
2023/09/16 07:11:32;;;;;;;2.15;1.95;;;;;;;;;;5140576;28;20168;-92
2023/09/16 07:14:00;;;;;;;3.40;2.17;;;;;;;;;;5140528;28;20176;-93
2023/09/16 07:16:39;;;;;;;1.90;1.80;;;;;;;;;;5140396;28;20175;-93
2023/09/16 07:19:06;;;;;;;1.98;1.80;;;;;;;;;;5140277;28;20164;-92
2023/09/16 07:21:34;;;;;;;2.03;1.92;;;;;;;;;;5140065;28;20175;-91
2023/09/16 07:24:02;;;;;;;3.17;1.90;;;;;;;;;;5140188;28;20175;-93
2023/09/16 07:26:29;;;;;;;2.03;1.92;;;;;;;;;;5140155;28;20183;-92
2023/09/16 07:28:58;;;;;;;2.10;1.92;;;;;;;;;;5139986;28;20183;-94
2023/09/16 07:31:25;;;;;;;2.08;1.98;;;;;;;;;;5140278;28;20172;-92
2023/09/16 07:33:54;;;;;;;1.80;1.70;;;;;;;;;;5140240;28;20173;-92
2023/09/16 07:36:22;;;;;;;2.58;2.05;;;;;;;;;;5140184;28;20164;-93
2023/09/16 07:38:50;;;;;;;1.83;1.73;;;;;;;;;;5139071;28;20266;-91
2023/09/16 07:41:18;;;;;;;2.10;2.00;;;;;;;;;;5138689;28;20200;-93
2023/09/16 07:43:46;;;;;;;2.25;2.15;;;;;;;;;;5138791;28;20176;-93
2023/09/16 07:46:14;;;;;;;2.03;1.92;;;;;;;;;;5138542;28;20187;-93
2023/09/16 07:48:41;;;;;;;2.97;2.10;;;;;;;;;;5137928;28;20203;-93
2023/09/16 07:51:10;;;;;;;2.17;1.90;;;;;;;;;;5138708;27;20183;-92
2023/09/16 07:53:38;;;;;;;2.75;2.55;;;;;;;;;;5138382;27;20200;-92
2023/09/16 07:56:05;;;;;;;2.22;1.90;;;;;;;;;;5138565;28;20180;-93
2023/09/16 07:58:33;;;;;;;1.58;1.48;;;;;;;;;;5138290;28;20227;-92
2023/09/16 08:01:00;;;;;;;2.00;1.90;;;;;;;;;;5138579;28;20191;-93
2023/09/16 08:03:28;;;;;;;1.58;1.48;;;;;;;;;;5138495;28;20184;-93
2023/09/16 08:05:57;;;;;;;1.80;1.60;;;;;;;;;;5138251;28;20222;-92
2023/09/16 08:08:26;;;;;;;2.70;2.50;;;;;;;;;;5138117;28;20212;-93
2023/09/16 08:10:53;;;;;;;2.40;2.10;;;;;;;;;;5138248;28;20194;-92
2023/09/16 08:13:21;;;;;;;2.08;1.95;;;;;;;;;;5138069;28;20198;-93
2023/09/16 08:15:49;;;;;;;2.20;2.10;;;;;;;;;;5138368;28;20188;-93
2023/09/16 08:18:16;;;;;;;1.90;1.75;;;;;;;;;;5138158;28;20204;-91
2023/09/16 08:20:45;;;;;;;3.25;2.95;;;;;;;;;;5137766;28;20198;-93
2023/09/16 08:23:13;;;;;;;2.60;2.40;;;;;;;;;;5136958;27;20195;-92
2023/09/16 08:25:42;;;;;;;1.77;1.67;;;;;;;;;;5138093;28;20235;-92
2023/09/16 08:28:10;;;;;;;1.90;1.80;;;;;;;;;;5137664;27;20222;-94
2023/09/16 08:30:37;;;;;;;1.95;1.85;;;;;;;;;;5138127;27;20194;-92
2023/09/16 08:33:06;;;;;;;2.40;2.20;;;;;;;;;;5138268;28;20180;-93
2023/09/16 08:35:33;;;;;;;1.95;1.85;;;;;;;;;;5137623;27;20200;-92
2023/09/16 08:38:02;;;;;;;1.60;1.50;;;;;;;;;;5137647;28;20214;-93
2023/09/16 08:40:32;;;;;;;1.80;1.70;;;;;;;;;;5137987;27;20203;-92
2023/09/16 08:43:21;;;;;;;2.83;2.30;;;;;;;;;;5138209;28;20175;-92
2023/09/16 08:45:59;;;;;;;2.50;2.30;;;;;;;;;;5138110;27;20196;-91
2023/09/16 08:48:27;;;;;;;2.10;1.88;;;;;;;;;;5137739;27;20211;-93
2023/09/16 08:50:55;;;;;;;1.80;1.70;;;;;;;;;;5138187;27;20196;-93
2023/09/16 08:53:23;;;;;;;2.35;2.13;;;;;;;;;;5141692;28;20195;-93
2023/09/16 08:55:52;;;;;;;2.08;1.98;;;;;;;;;;5141933;28;20175;-93
2023/09/16 08:58:21;;;;;;;2.38;2.10;;;;;;;;;;5141510;28;20195;-93
2023/09/16 09:00:48;;;;;;;2.17;2.03;;;;;;;;;;5141750;28;20188;-94
2023/09/16 09:03:16;;;;;;;2.63;2.33;;;;;;;;;;5141715;28;20180;-93
2023/09/16 09:05:45;;;;;;;2.33;1.80;;;;;;;;;;5141721;28;20188;-92
2023/09/16 09:08:13;;;;;;;2.05;1.95;;;;;;;;;;5141225;28;20221;-93
2023/09/16 09:10:41;;;;;;;2.40;2.20;;;;;;;;;;5141704;28;20200;-93
2023/09/16 09:13:13;;;;;;;2.25;1.92;;;;;;;;;;5141217;28;20199;-93
2023/09/16 09:15:44;;;;;;;2.60;2.40;;;;;;;;;;5141175;28;20197;-93
2023/09/16 09:18:13;;;;;;;2.20;2.10;;;;;;;;;;5140798;28;20267;-91
2023/09/16 09:20:41;;;;;;;3.03;2.83;;;;;;;;;;5140995;27;20188;-93
2023/09/16 09:23:09;;;;;;;2.40;2.20;;;;;;;;;;5141204;27;20194;-92
2023/09/16 09:25:41;;;;;;;2.47;2.28;;;;;;;;;;5141320;28;20190;-93
2023/09/16 09:28:08;;;;;;;2.83;2.63;;;;;;;;;;5141098;28;20241;-92
2023/09/16 09:30:36;;;;;;;3.63;2.35;;;;;;;;;;5141152;28;20212;-91
2023/09/16 09:33:06;;;;;;;1.90;1.80;;;;;;;;;;5141241;28;20184;-92
2023/09/16 09:35:33;;;;;;;2.15;1.98;;;;;;;;;;5141152;28;20205;-92
2023/09/16 09:38:01;;;;;;;2.42;2.33;;;;;;;;;;5140791;28;20207;-93
2023/09/16 09:40:29;;;;;;;2.47;2.38;;;;;;;;;;5141044;28;20180;-92
2023/09/16 09:42:57;;;;;;;2.15;2.05;;;;;;;;;;5141076;28;20210;-93
2023/09/16 09:45:27;;;;;;;2.50;2.30;;;;;;;;;;5140929;28;20231;-92
2023/09/16 09:47:55;;;;;;;2.13;2.03;;;;;;;;;;5140673;28;20259;-92
2023/09/16 09:50:24;;;;;;;2.38;2.17;;;;;;;;;;5140853;28;20188;-93
2023/09/16 09:52:53;;;;;;;3.55;2.78;;;;;;;;;;5140674;28;20187;-92
2023/09/16 09:55:23;;;;;;;2.38;2.25;;;;;;;;;;5140733;27;20206;-93
2023/09/16 09:57:52;;;;;;;2.45;2.25;;;;;;;;;;5140290;28;20183;-93
2023/09/16 10:00:21;;;;;;;2.97;2.78;;;;;;;;;;5140733;28;20180;-94
2023/09/16 10:02:50;;;;;;;2.70;2.50;;;;;;;;;;5140647;28;20183;-93
2023/09/16 10:05:20;;;;;;;2.13;1.98;;;;;;;;;;5140470;28;20207;-92
2023/09/16 10:07:51;;;;;;;2.53;2.33;;;;;;;;;;5140125;28;20195;-94
2023/09/16 10:10:21;;;;;;;3.30;3.00;;;;;;;;;;5140449;28;20184;-92
2023/09/16 10:12:50;;;;;;;2.20;2.10;;;;;;;;;;5140516;28;20196;-91
2023/09/16 10:15:18;;;;;;;2.17;2.08;;;;;;;;;;5140101;28;20199;-92
2023/09/16 10:17:46;;;;;;;2.00;1.90;;;;;;;;;;5140033;28;20187;-92
2023/09/16 10:20:14;;;;;;;2.15;2.05;;;;;;;;;;5140039;28;20203;-91
2023/09/16 10:22:42;;;;;;;4.22;2.47;;;;;;;;;;5139410;28;20187;-93
2023/09/16 10:25:13;;;;;;;2.28;2.15;;;;;;;;;;5140224;28;20183;-93
2023/09/16 10:27:49;;;;;;;2.92;2.63;;;;;;;;;;5139881;28;20195;-92
2023/09/16 10:30:18;;;;;;;2.40;2.30;;;;;;;;;;5139170;28;20209;-91
2023/09/16 10:32:45;;;;;;;2.67;2.47;;;;;;;;;;5139877;28;20186;-93
2023/09/16 10:35:13;;;;;;;2.97;2.78;;;;;;;;;;5139796;28;20176;-92
2023/09/16 10:37:41;;;;;;;2.53;2.35;;;;;;;;;;5139729;28;20194;-92
2023/09/16 10:40:11;;;;;;;2.28;2.17;;;;;;;;;;5139984;28;20191;-91
2023/09/16 10:42:39;;;;;;;2.45;2.25;;;;;;;;;;5139973;28;20176;-92
2023/09/16 10:45:11;;;;;;;2.80;2.60;;;;;;;;;;5139835;28;20209;-93
2023/09/16 10:47:39;;;;;;;3.03;2.83;;;;;;;;;;5139323;28;20187;-91
2023/09/16 10:50:07;;;;;;;2.20;2.10;;;;;;;;;;5139728;28;20184;-94
2023/09/16 10:52:42;;;;;;;2.60;2.40;;;;;;;;;;5139003;27;20187;-93
2023/09/16 10:55:16;;;;;;;3.00;2.80;;;;;;;;;;5139594;27;20255;-93
2023/09/16 10:57:51;;;;;;;2.80;2.60;;;;;;;;;;5138361;27;20213;-93
2023/09/16 11:00:22;;;;;;;2.15;2.05;;;;;;;;;;5139445;28;20187;-91
2023/09/16 11:02:58;;;;;;;2.22;2.10;;;;;;;;;;5139479;27;20215;-94
2023/09/16 11:05:26;;;;;;;2.30;2.10;;;;;;;;;;5139213;27;20207;-93
2023/09/16 11:07:54;;;;;;;2.75;2.40;;;;;;;;;;5138736;27;20207;-92
2023/09/16 11:10:24;;;;;;;2.65;2.55;;;;;;;;;;5139262;27;20191;-91
2023/09/16 11:12:52;;;;;;;2.35;2.22;;;;;;;;;;5139031;27;20179;-93
2023/09/16 11:15:20;;;;;;;2.70;2.50;;;;;;;;;;5138630;27;20250;-92
2023/09/16 11:17:48;;;;;;;2.45;2.35;;;;;;;;;;5138782;27;20229;-91
2023/09/16 11:20:24;;;;;;;2.35;2.22;;;;;;;;;;5138782;27;20228;-93
2023/09/16 11:22:52;;;;;;;2.30;2.10;;;;;;;;;;5138758;27;20175;-93
2023/09/16 11:25:19;;;;;;;2.67;2.25;;;;;;;;;;5137164;28;20180;-91
2023/09/16 11:27:49;;;;;;;2.22;2.13;;;;;;;;;;5138684;27;20191;-92
2023/09/16 11:30:17;;;;;;;2.55;2.35;;;;;;;;;;5138858;27;20211;-92
2023/09/16 11:33:25;;;;;;;2.25;2.13;;;;;;;;;;5138533;27;20183;-91
2023/09/16 11:36:08;;;;;;;2.30;2.20;;;;;;;;;;5135934;28;20268;-92
2023/09/16 11:38:37;;;;;;;2.35;2.25;;;;;;;;;;5132939;28;20243;-92
2023/09/16 11:41:10;;;;;;;2.88;2.50;;;;;;;;;;5135291;28;20244;-90
2023/09/16 11:43:39;;;;;;;3.22;2.92;;;;;;;;;;5134284;27;20206;-91
2023/09/16 11:46:08;;;;;;;2.40;2.30;;;;;;;;;;5131092;27;20215;-93
2023/09/16 11:48:52;;;;;;;2.42;2.33;;;;;;;;;;5137175;28;20215;-92
2023/09/16 11:51:22;;;;;;;2.67;2.47;;;;;;;;;;5138249;27;20203;-92
2023/09/16 11:53:50;;;;;;;2.35;2.25;;;;;;;;;;5137430;28;20264;-91
2023/09/16 11:56:20;;;;;;;2.10;2.00;;;;;;;;;;5136866;28;20183;-91
2023/09/16 11:58:49;;;;;;;2.20;2.10;;;;;;;;;;5133143;28;20238;-93
2023/09/16 12:01:22;;;;;;;2.92;2.72;;;;;;;;;;5133961;28;20210;-93
2023/09/16 12:03:50;;;;;;;3.80;3.55;;;;;;;;;;5132922;28;20199;-92
2023/09/16 12:06:20;;;;;;;3.28;3.00;;;;;;;;;;5129222;28;20208;-92
2023/09/16 12:08:48;;;;;;;2.90;2.70;;;;;;;;;;5128821;28;20220;-93
2023/09/16 12:11:16;;;;;;;3.42;2.83;;;;;;;;;;5136611;28;20199;-91
2023/09/16 12:13:44;;;;;;;2.92;2.72;;;;;;;;;;5138523;28;20206;-93
2023/09/16 12:16:15;;;;;;;2.22;2.13;;;;;;;;;;5138652;28;20179;-92
2023/09/16 12:18:43;;;;;;;3.30;3.03;;;;;;;;;;5137839;28;20233;-92
2023/09/16 12:21:12;;;;;;;3.38;3.17;;;;;;;;;;5138073;27;20206;-92
2023/09/16 12:23:41;;;;;;;3.17;2.92;;;;;;;;;;5138026;27;20209;-92
2023/09/16 12:26:09;;;;;;;2.85;2.65;;;;;;;;;;5138854;28;20251;-92
2023/09/16 12:28:38;;;;;;;2.78;2.58;;;;;;;;;;5142081;28;20259;-90
2023/09/16 12:31:08;;;;;;;2.88;2.67;;;;;;;;;;5141977;28;20406;-93
2023/09/16 12:33:44;;;;;;;2.85;2.65;;;;;;;;;;5142148;28;20199;-93
2023/09/16 12:36:16;;;;;;;2.63;2.42;;;;;;;;;;5142416;28;20183;-92
2023/09/16 12:38:44;;;;;;;2.55;2.35;;;;;;;;;;5141953;28;20211;-91
2023/09/16 12:41:13;;;;;;;2.53;2.20;;;;;;;;;;5142191;28;20204;-92
2023/09/16 12:43:41;;;;;;;2.30;2.20;;;;;;;;;;5142128;28;20248;-91
2023/09/16 12:46:09;;;;;;;2.30;2.20;;;;;;;;;;5142094;28;20200;-92
2023/09/16 12:48:37;;;;;;;2.67;2.33;;;;;;;;;;5141686;28;20225;-92
2023/09/16 12:51:08;;;;;;;2.40;2.30;;;;;;;;;;5141525;27;20228;-92
2023/09/16 12:53:35;;;;;;;2.53;2.40;;;;;;;;;;5141667;27;20218;-91
2023/09/16 12:56:04;;;;;;;2.40;2.30;;;;;;;;;;5141777;27;20187;-92
2023/09/16 12:58:31;;;;;;;3.30;2.95;;;;;;;;;;5141595;27;20204;-93
2023/09/16 13:00:59;;;;;;;2.25;2.15;;;;;;;;;;5141838;27;20180;-91
2023/09/16 13:03:27;;;;;;;2.47;2.13;;;;;;;;;;5141689;27;20187;-93
2023/09/16 13:05:57;;;;;;;3.13;2.92;;;;;;;;;;5141598;28;20187;-94
2023/09/16 13:08:26;;;;;;;3.35;3.15;;;;;;;;;;5141647;28;20255;-90
2023/09/16 13:10:54;;;;;;;2.17;2.08;;;;;;;;;;5141602;28;20222;-91
2023/09/16 13:13:23;;;;;;;2.67;2.53;;;;;;;;;;5141599;27;20206;-92
2023/09/16 13:15:51;;;;;;;2.83;2.60;;;;;;;;;;5141607;27;20240;-90
2023/09/16 13:18:19;;;;;;;3.00;2.80;;;;;;;;;;5141220;27;20207;-92
2023/09/16 13:20:47;;;;;;;2.20;2.10;;;;;;;;;;5140894;27;20220;-91
2023/09/16 13:23:24;;;;;;;2.97;2.80;;;;;;;;;;5141018;28;20188;-92
2023/09/16 13:25:54;;;;;;;3.00;2.80;;;;;;;;;;5141383;27;20199;-92
2023/09/16 13:28:24;;;;;;;2.88;2.67;;;;;;;;;;5140842;28;20218;-93
2023/09/16 13:30:54;;;;;;;2.97;2.78;;;;;;;;;;5141198;28;20204;-93
2023/09/16 13:33:37;;;;;;;2.22;2.13;;;;;;;;;;5141223;27;20192;-93
2023/09/16 13:36:05;;;;;;;1.80;1.70;;;;;;;;;;5141132;28;20187;-93
2023/09/16 13:38:33;;;;;;;2.08;1.98;;;;;;;;;;5140386;28;20192;-91
2023/09/16 13:41:02;;;;;;;2.30;2.20;;;;;;;;;;5140940;27;20199;-93
2023/09/16 13:43:29;;;;;;;2.45;2.35;;;;;;;;;;5140999;28;20187;-92
2023/09/16 13:45:57;;;;;;;2.15;2.03;;;;;;;;;;5141057;28;20184;-93
2023/09/16 13:48:24;;;;;;;2.33;2.22;;;;;;;;;;5140726;28;20196;-92
2023/09/16 13:50:52;;;;;;;2.45;2.25;;;;;;;;;;5140705;28;20215;-93
2023/09/16 13:53:22;;;;;;;2.45;2.35;;;;;;;;;;5140615;27;20217;-93
2023/09/16 13:55:53;;;;;;;2.20;2.10;;;;;;;;;;5140757;27;20172;-92
2023/09/16 13:58:23;;;;;;;2.10;1.90;;;;;;;;;;5140482;27;20230;-93
2023/09/16 14:00:51;;;;;;;1.92;1.83;;;;;;;;;;5140743;27;20176;-93
2023/09/16 14:03:18;;;;;;;2.65;2.47;;;;;;;;;;5140614;28;20180;-93
2023/09/16 14:05:46;;;;;;;2.45;2.33;;;;;;;;;;5140574;27;20191;-93
2023/09/16 14:08:14;;;;;;;2.30;2.20;;;;;;;;;;5139524;27;20199;-93
2023/09/16 14:10:41;;;;;;;3.08;2.88;;;;;;;;;;5130084;27;20242;-93
2023/09/16 14:13:09;;;;;;;2.53;1.90;;;;;;;;;;5140445;27;20183;-94
2023/09/16 14:15:40;;;;;;;1.77;1.67;;;;;;;;;;5140540;27;20180;-93
2023/09/16 14:18:09;;;;;;;1.77;1.67;;;;;;;;;;5140299;28;20204;-94
2023/09/16 14:20:38;;;;;;;2.85;2.28;;;;;;;;;;5139886;28;20187;-94
2023/09/16 14:23:07;;;;;;;1.90;1.80;;;;;;;;;;5140222;28;20179;-94
2023/09/16 14:25:35;;;;;;;1.90;1.80;;;;;;;;;;5140273;27;20180;-94
2023/09/16 14:28:03;;;;;;;2.13;1.95;;;;;;;;;;5139854;28;20208;-94
2023/09/16 14:30:31;;;;;;;2.40;2.30;;;;;;;;;;5140074;28;20195;-94
2023/09/16 14:33:00;;;;;;;3.25;3.05;;;;;;;;;;5140048;28;20287;-93
2023/09/16 14:35:32;;;;;;;2.63;2.42;;;;;;;;;;5140130;28;20188;-95
2023/09/16 14:38:03;;;;;;;2.40;2.30;;;;;;;;;;5139744;28;20195;-94
2023/09/16 14:40:31;;;;;;;2.10;2.00;;;;;;;;;;5140047;28;20190;-94
2023/09/16 14:42:59;;;;;;;3.42;2.50;;;;;;;;;;5139879;28;20243;-94
2023/09/16 14:45:27;;;;;;;2.58;2.33;;;;;;;;;;5139784;28;20184;-93
2023/09/16 14:47:54;;;;;;;2.15;2.05;;;;;;;;;;5139488;28;20195;-95
2023/09/16 14:50:23;;;;;;;2.30;2.20;;;;;;;;;;5138919;28;20195;-93
2023/09/16 14:52:51;;;;;;;2.65;2.50;;;;;;;;;;5139356;28;20191;-95